Time;durP1;ratioP1;P1;durP2;ratioP2;P2;SDS_P1;SDS_P2;PMS_P1;PMS_P2;Temp;Humidity;BMP_temperature;BMP_pressure;BME280_temperature;BME280_humidity;BME280_pressure;Samples;Min_cycle;Max_cycle;Signal;HPM_P1;HPM_P2
2022/05/10 00:00:54;;;;;;;;;19.33;19.33;23.10;38.30;;;;;;5117421;28;8757;-71
2022/05/10 00:03:22;;;;;;;;;24.00;24.00;23.10;38.30;;;;;;5116973;28;9644;-71
2022/05/10 00:05:48;;;;;;;;;17.00;17.00;22.70;38.90;;;;;;5099306;28;8880;-71
2022/05/10 00:08:16;;;;;;;;;22.00;22.00;22.30;40.00;;;;;;5117581;28;8804;-70
2022/05/10 00:10:44;;;;;;;;;22.00;22.00;22.40;39.80;;;;;;5117424;28;9426;-70
2022/05/10 00:13:11;;;;;;;;;22.00;22.00;22.40;39.90;;;;;;5117005;28;8829;-70
2022/05/10 00:15:38;;;;;;;;;25.00;25.00;22.40;39.80;;;;;;5117082;28;8770;-70
2022/05/10 00:18:04;;;;;;;;;21.67;21.67;22.50;39.60;;;;;;5117064;28;8777;-71
2022/05/10 00:20:30;;;;;;;;;23.00;23.00;21.70;41.00;;;;;;5117287;28;8762;-70
2022/05/10 00:22:56;;;;;;;;;24.33;24.33;21.80;41.20;;;;;;5117269;28;8896;-70
2022/05/10 00:25:25;;;;;;;;;20.00;20.00;21.90;40.90;;;;;;5116904;28;8785;-70
2022/05/10 00:27:51;;;;;;;;;24.67;24.67;22.10;40.90;;;;;;5117272;28;8784;-70
2022/05/10 00:30:17;;;;;;;;;23.00;23.00;21.80;41.00;;;;;;5117143;28;8872;-70
2022/05/10 00:32:43;;;;;;;;;16.67;16.67;22.00;40.90;;;;;;5117044;28;8794;-70
2022/05/10 00:35:19;;;;;;;;;18.33;18.33;21.70;41.20;;;;;;5117023;28;9438;-70
2022/05/10 00:37:48;;;;;;;;;24.33;24.33;21.90;41.10;;;;;;5116766;28;8749;-70
2022/05/10 00:40:16;;;;;;;;;23.00;23.00;22.00;41.00;;;;;;5116631;28;8765;-70
2022/05/10 00:42:52;;;;;;;;;22.00;22.00;22.10;40.90;;;;;;5116469;28;9416;-70
2022/05/10 00:45:26;;;;;;;;;18.67;18.67;22.20;40.70;;;;;;5116517;28;8901;-71
2022/05/10 00:48:06;;;;;;;;;22.00;22.00;22.20;40.50;;;;;;5116578;28;8834;-70
2022/05/10 00:50:43;;;;;;;;;22.00;22.00;22.10;40.70;;;;;;5116762;28;8787;-70
2022/05/10 00:53:48;;;;;;;;;23.67;23.67;21.80;41.10;;;;;;5116388;28;8749;-70
2022/05/10 00:56:38;;;;;;;;;21.67;21.67;21.30;42.60;;;;;;5116422;28;8759;-70
2022/05/10 00:59:28;;;;;;;;;23.00;23.00;21.10;42.90;;;;;;5116316;28;8749;-70
2022/05/10 01:02:02;;;;;;;;;26.00;26.00;20.90;43.60;;;;;;5116594;28;8800;-71
2022/05/10 01:04:34;;;;;;;;;24.33;24.33;20.70;44.20;;;;;;5116535;28;8786;-71
2022/05/10 01:07:13;;;;;;;;;28.67;28.67;20.90;44.10;;;;;;5116171;28;8734;-71
2022/05/10 01:09:52;;;;;;;;;29.00;29.00;21.10;43.50;;;;;;5116143;28;8780;-71
2022/05/10 01:12:41;;;;;;;;;26.67;26.67;21.20;43.60;;;;;;5115562;28;8746;-71
2022/05/10 01:15:15;;;;;;;;;24.67;24.67;21.20;43.30;;;;;;5115080;28;8766;-71
2022/05/10 01:17:41;;;;;;;;;23.33;23.33;21.10;43.70;;;;;;5116250;28;8838;-71
2022/05/10 01:20:09;;;;;;;;;26.33;26.33;20.70;44.30;;;;;;5115819;28;8826;-71
2022/05/10 01:22:34;;;;;;;;;28.33;28.33;20.40;45.40;;;;;;5115854;28;8750;-71
2022/05/10 01:25:54;;;;;;;;;28.00;28.00;20.80;44.80;;;;;;5115641;28;8805;-71
2022/05/10 01:28:44;;;;;;;;;27.67;27.67;21.10;44.20;;;;;;5013207;28;8817;-71
2022/05/10 01:31:17;;;;;;;;;30.00;29.00;21.10;44.00;;;;;;5013304;28;8911;-71
2022/05/10 01:33:54;;;;;;;;;28.33;28.33;20.40;45.20;;;;;;5013179;28;8797;-71
2022/05/10 01:36:25;;;;;;;;;28.33;28.33;20.50;45.00;;;;;;5013120;28;8852;-71
2022/05/10 01:39:10;;;;;;;;;29.00;29.00;20.00;45.60;;;;;;5013185;28;8777;-71
2022/05/10 01:42:00;;;;;;;;;30.00;30.00;20.00;46.90;;;;;;5013134;28;8780;-71
2022/05/10 01:44:53;;;;;;;;;24.67;24.67;20.40;45.90;;;;;;5012917;28;8859;-71
2022/05/10 01:47:30;;;;;;;;;29.00;29.00;20.50;45.70;;;;;;5012994;28;8769;-72
2022/05/10 01:50:08;;;;;;;;;30.67;30.67;20.60;45.30;;;;;;5012943;28;9467;-72
2022/05/10 01:52:42;;;;;;;;;25.33;25.33;20.70;45.40;;;;;;5013312;28;8785;-71
2022/05/10 01:55:30;;;;;;;;;23.00;23.00;20.70;44.80;;;;;;5012810;28;8811;-71
2022/05/10 01:58:02;;;;;;;;;25.67;25.67;20.50;45.90;;;;;;5012854;28;8872;-71
2022/05/10 02:00:29;;;;;;;;;25.00;25.00;20.70;46.60;;;;;;5012900;28;8832;-71
2022/05/10 02:03:01;;;;;;;;;23.00;23.00;20.80;45.30;;;;;;5102264;28;9456;-70
2022/05/10 02:05:36;;;;;;;;;25.33;25.33;20.70;45.60;;;;;;5115052;28;8862;-70
2022/05/10 02:08:12;;;;;;;;;26.33;26.33;20.90;45.10;;;;;;5115469;28;9415;-71
2022/05/10 02:10:43;;;;;;;;;25.00;25.00;21.00;44.80;;;;;;5115392;28;8758;-70
2022/05/10 02:13:16;;;;;;;;;29.00;29.00;21.00;44.80;;;;;;5114761;28;8826;-71
2022/05/10 02:15:51;;;;;;;;;22.67;22.67;21.10;44.60;;;;;;5115032;28;8757;-71
2022/05/10 02:18:28;;;;;;;;;27.67;27.67;21.10;44.70;;;;;;5115324;28;8753;-71
2022/05/10 02:21:08;;;;;;;;;26.67;26.67;21.10;44.70;;;;;;5114876;28;9450;-70
2022/05/10 02:24:01;;;;;;;;;28.00;28.00;21.10;44.30;;;;;;5096930;28;8785;-71
2022/05/10 02:26:41;;;;;;;;;21.00;21.00;21.20;44.50;;;;;;5114621;28;8785;-71
2022/05/10 02:29:41;;;;;;;;;28.33;28.33;21.20;44.30;;;;;;5114905;28;8848;-71
2022/05/10 02:35:16;;;;;;;;;24.00;24.00;21.40;43.90;;;;;;5114927;28;8713;-71
2022/05/10 02:37:42;;;;;;;;;23.67;23.67;21.10;44.60;;;;;;5114783;28;8760;-70
2022/05/10 02:40:09;;;;;;;;;25.00;25.00;21.10;44.80;;;;;;5114999;28;8863;-71
2022/05/10 02:42:35;;;;;;;;;27.33;27.33;21.00;45.00;;;;;;5114576;28;8932;-70
2022/05/10 02:45:03;;;;;;;;;25.67;25.67;21.00;45.00;;;;;;5114616;28;8778;-70
2022/05/10 02:47:35;;;;;;;;;28.67;28.67;21.10;44.90;;;;;;5114677;28;8793;-70
2022/05/10 02:50:02;;;;;;;;;24.00;24.00;21.00;45.00;;;;;;5114678;28;8773;-71
2022/05/10 02:52:28;;;;;;;;;26.67;26.67;20.90;45.50;;;;;;5114838;28;8834;-70
2022/05/10 02:55:12;;;;;;;;;25.67;25.67;20.80;45.80;;;;;;5114545;28;8777;-71
2022/05/10 02:57:37;;;;;;;;;26.00;25.67;20.90;45.70;;;;;;5114619;28;8754;-71
2022/05/10 03:00:06;;;;;;;;;26.67;26.67;20.80;46.30;;;;;;5114560;28;8847;-71
2022/05/10 03:02:37;;;;;;;;;21.33;21.33;20.80;46.20;;;;;;5114840;28;9546;-71
2022/05/10 03:05:04;;;;;;;;;23.67;23.67;20.90;46.00;;;;;;5114424;28;8889;-70
2022/05/10 03:07:31;;;;;;;;;23.00;23.00;20.80;46.40;;;;;;5114475;28;8765;-71
2022/05/10 03:09:56;;;;;;;;;30.67;29.33;20.90;46.60;;;;;;5114714;28;8754;-71
2022/05/10 03:12:22;;;;;;;;;24.33;24.33;20.60;47.20;;;;;;5113874;28;9426;-71
2022/05/10 03:14:49;;;;;;;;;26.00;25.67;20.80;47.10;;;;;;5114663;28;8869;-71
2022/05/10 03:17:14;;;;;;;;;29.00;29.00;20.80;46.90;;;;;;5114394;28;8753;-70
2022/05/10 03:19:41;;;;;;;;;25.33;25.00;20.70;47.30;;;;;;5104184;28;8777;-71
2022/05/10 03:22:08;;;;;;;;;21.67;21.67;20.70;47.30;;;;;;5112348;28;8770;-71
2022/05/10 03:24:35;;;;;;;;;26.00;26.00;20.50;47.60;;;;;;5093895;28;8856;-71
2022/05/10 03:27:06;;;;;;;;;26.00;24.33;20.70;47.40;;;;;;5094192;28;8756;-71
2022/05/10 03:29:32;;;;;;;;;24.00;24.00;20.70;47.70;;;;;;5093979;28;8872;-71
2022/05/10 03:31:58;;;;;;;;;27.00;27.00;20.60;47.90;;;;;;5093833;28;8836;-71
2022/05/10 03:37:27;;;;;;;;;23.67;23.67;20.60;48.20;;;;;;5031918;28;9488;-70
2022/05/10 03:39:54;;;;;;;;;21.67;21.67;20.70;48.10;;;;;;5046100;28;8775;-70
2022/05/10 03:42:20;;;;;;;;;26.33;26.33;20.40;48.80;;;;;;5036267;28;8777;-70
2022/05/10 03:44:49;;;;;;;;;25.00;25.00;20.40;48.90;;;;;;5043106;28;8961;-70
2022/05/10 03:47:17;;;;;;;;;26.67;26.67;20.30;49.40;;;;;;5054873;28;8803;-71
2022/05/10 03:49:44;;;;;;;;;23.33;23.33;20.40;49.10;;;;;;5054942;28;8793;-70
2022/05/10 03:52:09;;;;;;;;;26.33;26.33;20.20;50.00;;;;;;5054901;28;8761;-70
2022/05/10 03:54:35;;;;;;;;;24.33;24.33;20.40;49.80;;;;;;5054822;28;8881;-70
2022/05/10 03:57:01;;;;;;;;;28.00;28.00;20.00;50.60;;;;;;5054733;28;8790;-70
2022/05/10 03:59:27;;;;;;;;;29.33;29.33;20.10;50.20;;;;;;5054714;28;8768;-70
2022/05/10 04:01:52;;;;;;;;;25.33;25.33;20.20;50.20;;;;;;5054683;28;8772;-70
2022/05/10 04:04:18;;;;;;;;;28.67;28.67;20.10;50.50;;;;;;5054559;28;8827;-70
2022/05/10 04:06:44;;;;;;;;;31.00;31.00;20.20;50.50;;;;;;5054534;28;8819;-70
2022/05/10 04:09:10;;;;;;;;;29.00;29.00;20.30;50.30;;;;;;5054580;28;8784;-70
2022/05/10 04:11:35;;;;;;;;;27.33;27.33;20.30;50.10;;;;;;5041225;28;8766;-70
2022/05/10 04:14:03;;;;;;;;;31.00;31.00;20.30;49.90;;;;;;5089010;28;8870;-70
2022/05/10 04:16:29;;;;;;;;;29.33;29.00;20.40;50.00;;;;;;5084854;28;8794;-70
2022/05/10 04:18:54;;;;;;;;;24.00;24.00;20.30;50.00;;;;;;5076668;28;9439;-69
2022/05/10 04:21:20;;;;;;;;;28.67;28.67;20.00;51.00;;;;;;5076353;28;8781;-70
2022/05/10 04:23:46;;;;;;;;;28.00;28.00;20.00;51.20;;;;;;5076273;28;8759;-70
2022/05/10 04:26:15;;;;;;;;;27.00;27.00;20.20;50.90;;;;;;5076544;28;8831;-70
2022/05/10 04:28:43;;;;;;;;;25.67;25.67;20.50;50.10;;;;;;5076347;28;8754;-70
2022/05/10 04:31:09;;;;;;;;;27.00;25.67;20.50;50.10;;;;;;5058693;28;8782;-71
2022/05/10 04:33:35;;;;;;;;;26.67;26.67;20.40;50.50;;;;;;5076378;28;8770;-71
2022/05/10 04:36:01;;;;;;;;;23.67;23.67;20.40;50.60;;;;;;5076088;28;8785;-71
2022/05/10 04:38:27;;;;;;;;;27.67;27.67;20.10;51.50;;;;;;5079015;28;8805;-71
2022/05/10 04:43:38;;;;;;;;;26.00;26.00;20.30;51.40;;;;;;5099317;28;8914;-71
2022/05/10 04:46:05;;;;;;;;;14.00;14.00;20.50;50.90;;;;;;5096116;28;8894;-71
2022/05/10 04:48:32;;;;;;;;;24.67;24.67;20.30;51.60;;;;;;5095935;28;8774;-71
2022/05/10 04:50:58;;;;;;;;;28.00;28.00;20.10;52.90;;;;;;5096001;28;8740;-71
2022/05/10 04:53:24;;;;;;;;;22.67;22.67;20.10;52.90;;;;;;5095987;28;8783;-71
2022/05/10 04:55:49;;;;;;;;;26.67;26.67;20.20;53.00;;;;;;5096103;28;8772;-71
2022/05/10 04:58:15;;;;;;;;;29.00;28.67;20.40;52.70;;;;;;5095873;28;8806;-71
2022/05/10 05:00:41;;;;;;;;;27.67;27.67;20.40;52.40;;;;;;5094462;28;8756;-71
2022/05/10 05:03:07;;;;;;;;;26.33;26.33;19.90;53.90;;;;;;5116640;28;8768;-71
2022/05/10 05:05:33;;;;;;;;;19.00;19.00;19.60;55.60;;;;;;5114190;28;9544;-71
2022/05/10 05:07:58;;;;;;;;;20.33;20.33;19.70;54.30;;;;;;5111023;28;8794;-71
2022/05/10 05:10:24;;;;;;;;;14.67;14.67;19.90;54.20;;;;;;5111316;28;8800;-71
2022/05/10 05:12:51;;;;;;;;;21.33;21.33;20.30;53.00;;;;;;5106622;28;8807;-71
2022/05/10 05:15:17;;;;;;;;;27.67;27.67;20.10;53.10;;;;;;5086258;28;8876;-71
2022/05/10 05:17:43;;;;;;;;;27.00;27.00;20.40;53.10;;;;;;5088657;28;8786;-71
2022/05/10 05:20:09;;;;;;;;;22.00;22.00;20.70;51.90;;;;;;5057209;28;8907;-71
2022/05/10 05:22:35;;;;;;;;;23.33;23.33;20.80;51.50;;;;;;5094466;28;8768;-71
2022/05/10 05:25:01;;;;;;;;;27.00;27.00;21.00;51.00;;;;;;5095470;28;8942;-71
2022/05/10 05:27:27;;;;;;;;;23.00;23.00;21.20;50.60;;;;;;5095416;28;8773;-71
2022/05/10 05:29:52;;;;;;;;;26.00;26.00;21.00;50.30;;;;;;5095262;28;8780;-71
2022/05/10 05:32:24;;;;;;;;;25.00;25.00;21.00;51.10;;;;;;5094356;28;8794;-71
2022/05/10 05:34:50;;;;;;;;;18.33;18.33;21.00;50.80;;;;;;5075261;28;8773;-71
2022/05/10 05:37:33;;;;;;;;;31.00;30.00;21.00;50.90;;;;;;5074869;28;8808;-71
2022/05/10 05:40:15;;;;;;;;;20.33;20.33;20.60;51.50;;;;;;5089132;28;9430;-71
2022/05/10 05:42:42;;;;;;;;;23.00;23.00;20.70;51.40;;;;;;5097645;28;8778;-71
2022/05/10 05:45:10;;;;;;;;;29.67;29.67;20.80;51.10;;;;;;5115408;28;8814;-71
2022/05/10 05:47:36;;;;;;;;;23.33;23.33;20.80;51.50;;;;;;5115324;28;8811;-71
2022/05/10 05:50:02;;;;;;;;;22.67;22.67;20.60;52.10;;;;;;5115500;28;8778;-71
2022/05/10 05:52:28;;;;;;;;;24.00;24.00;20.60;53.50;;;;;;5115436;28;9426;-71
2022/05/10 05:54:54;;;;;;;;;27.33;27.33;20.80;52.00;;;;;;5115473;28;8830;-71
2022/05/10 05:57:21;;;;;;;;;27.33;27.33;21.10;51.20;;;;;;5115190;28;8753;-71
2022/05/10 05:59:47;;;;;;;;;27.33;27.33;21.00;51.20;;;;;;5108935;28;8887;-71
2022/05/10 06:02:16;;;;;;;;;24.00;24.00;21.40;50.60;;;;;;5094292;28;8844;-70
2022/05/10 06:04:42;;;;;;;;;25.00;25.00;21.30;50.80;;;;;;5094730;28;8880;-70
2022/05/10 06:07:09;;;;;;;;;26.33;26.33;21.40;50.50;;;;;;5094929;28;8878;-70
2022/05/10 06:09:46;;;;;;;;;28.67;28.67;21.60;50.00;;;;;;5094583;28;8763;-71
2022/05/10 06:12:14;;;;;;;;;27.33;27.33;21.70;49.50;;;;;;5081126;28;8769;-71
2022/05/10 06:14:40;;;;;;;;;27.67;27.67;21.80;48.80;;;;;;5114879;28;8777;-70
2022/05/10 06:17:07;;;;;;;;;26.00;26.00;21.80;49.10;;;;;;5114823;28;8766;-70
2022/05/10 06:19:36;;;;;;;;;20.67;20.67;22.10;48.60;;;;;;5114979;28;8754;-71
2022/05/10 06:22:02;;;;;;;;;22.67;22.67;21.90;48.80;;;;;;5114905;28;8792;-71
2022/05/10 06:24:28;;;;;;;;;29.00;29.00;21.70;49.20;;;;;;5115187;28;8782;-71
2022/05/10 06:26:53;;;;;;;;;28.33;27.33;22.20;48.80;;;;;;5115054;28;8754;-71
2022/05/10 06:29:19;;;;;;;;;29.67;29.67;22.40;48.30;;;;;;5114956;28;8796;-71
2022/05/10 06:31:47;;;;;;;;;33.00;31.67;22.60;48.10;;;;;;5114720;28;8773;-70
2022/05/10 06:34:13;;;;;;;;;28.67;28.67;22.60;47.60;;;;;;5111600;28;8761;-70
2022/05/10 06:36:40;;;;;;;;;29.00;29.00;22.30;48.20;;;;;;5115157;28;8766;-70
2022/05/10 06:39:06;;;;;;;;;30.00;29.33;22.20;48.90;;;;;;5114051;28;8734;-70
2022/05/10 06:41:32;;;;;;;;;27.67;27.67;22.60;48.40;;;;;;5094657;28;8784;-70
2022/05/10 06:43:59;;;;;;;;;30.00;30.00;22.90;47.50;;;;;;5095901;28;8861;-70
2022/05/10 06:46:27;;;;;;;;;27.00;27.00;23.00;47.40;;;;;;5089906;28;8772;-70
2022/05/10 06:48:53;;;;;;;;;26.00;26.00;23.20;46.80;;;;;;5092429;28;8782;-70
2022/05/10 06:51:21;;;;;;;;;27.67;26.33;23.10;47.10;;;;;;5100429;28;8766;-70
2022/05/10 06:53:47;;;;;;;;;23.33;23.33;22.90;46.80;;;;;;5114599;28;8754;-70
2022/05/10 06:56:13;;;;;;;;;30.00;30.00;22.90;47.60;;;;;;5114753;28;8758;-70
2022/05/10 06:58:39;;;;;;;;;25.33;25.33;23.20;47.30;;;;;;5102427;28;8859;-68
2022/05/10 07:01:10;;;;;;;;;26.33;26.33;23.30;47.00;;;;;;5094079;28;8756;-68
2022/05/10 07:03:36;;;;;;;;;25.00;25.00;23.50;46.60;;;;;;5094400;28;8755;-68
2022/05/10 07:06:05;;;;;;;;;24.67;24.67;23.60;45.80;;;;;;5094346;28;8748;-71
2022/05/10 07:08:31;;;;;;;;;25.33;25.33;23.60;45.80;;;;;;5093971;28;8848;-71
2022/05/10 07:10:57;;;;;;;;;25.33;25.33;23.10;46.40;;;;;;5094149;28;8778;-71
2022/05/10 07:13:25;;;;;;;;;24.33;24.33;23.20;46.80;;;;;;5110165;28;8814;-71
2022/05/10 07:15:52;;;;;;;;;25.67;25.67;23.40;46.00;;;;;;5118281;28;8789;-70
2022/05/10 07:18:18;;;;;;;;;26.33;25.67;23.30;46.20;;;;;;5118262;28;8749;-70
2022/05/10 07:20:46;;;;;;;;;23.33;23.33;23.30;46.90;;;;;;5118159;28;8789;-70
2022/05/10 07:23:12;;;;;;;;;27.00;27.00;23.30;46.70;;;;;;5118013;28;8774;-68
2022/05/10 07:25:38;;;;;;;;;25.33;25.33;23.40;46.70;;;;;;5118053;28;8793;-70
2022/05/10 07:28:07;;;;;;;;;22.00;22.00;23.30;46.90;;;;;;5118079;28;8822;-71
2022/05/10 07:30:35;;;;;;;;;26.00;26.00;22.90;47.40;;;;;;5118242;28;8750;-71
2022/05/10 07:33:01;;;;;;;;;20.00;20.00;23.20;47.70;;;;;;5118225;28;9616;-71
2022/05/10 07:38:14;;;;;;;;;25.67;25.67;23.00;47.60;;;;;;5117805;28;8746;-69
2022/05/10 07:40:41;;;;;;;;;21.67;21.67;23.10;47.90;;;;;;5118051;28;8766;-71
2022/05/10 07:43:07;;;;;;;;;25.33;25.33;23.20;47.80;;;;;;5116165;28;8801;-70
2022/05/10 07:45:34;;;;;;;;;24.33;24.33;23.50;46.50;;;;;;5117531;28;9440;-70
2022/05/10 07:48:00;;;;;;;;;23.00;23.00;23.60;46.20;;;;;;5099496;28;8753;-70
2022/05/10 07:50:25;;;;;;;;;26.33;26.33;24.20;46.00;;;;;;5117503;28;8773;-70
2022/05/10 07:52:51;;;;;;;;;29.33;29.33;24.50;45.40;;;;;;5117415;28;8745;-70
2022/05/10 07:55:18;;;;;;;;;31.67;31.67;24.70;44.30;;;;;;5117914;28;8860;-70
2022/05/10 07:57:44;;;;;;;;;26.00;26.00;24.80;44.30;;;;;;5117454;28;8774;-70
2022/05/10 08:00:12;;;;;;;;;30.00;30.00;24.80;43.80;;;;;;5117307;28;8792;-70
2022/05/10 08:02:42;;;;;;;;;26.33;26.33;24.70;44.50;;;;;;5117362;28;8765;-71
2022/05/10 08:05:09;;;;;;;;;24.00;24.00;25.10;44.40;;;;;;5117421;28;8797;-68
2022/05/10 08:07:35;;;;;;;;;17.33;17.33;24.70;43.40;;;;;;5117496;28;9619;-69
2022/05/10 08:10:01;;;;;;;;;27.67;27.67;24.40;44.60;;;;;;5117186;28;8884;-70
2022/05/10 08:12:27;;;;;;;;;26.67;26.67;24.70;43.90;;;;;;5116472;28;8927;-70
2022/05/10 08:14:53;;;;;;;;;25.67;25.67;24.20;44.70;;;;;;5117345;28;8769;-69
2022/05/10 08:17:19;;;;;;;;;24.67;24.67;24.90;44.00;;;;;;5117208;28;8753;-69
2022/05/10 08:19:45;;;;;;;;;28.67;27.67;25.50;42.30;;;;;;5117323;28;8758;-69
2022/05/10 08:22:11;;;;;;;;;25.33;25.33;25.90;41.90;;;;;;5117190;28;8754;-69
2022/05/10 08:24:37;;;;;;;;;24.67;24.67;26.20;41.90;;;;;;5116307;28;8790;-70
2022/05/10 08:27:02;;;;;;;;;26.00;26.00;26.70;40.40;;;;;;5117158;28;8742;-70
2022/05/10 08:29:28;;;;;;;;;25.00;25.00;26.70;40.00;;;;;;5116888;28;8784;-71
2022/05/10 08:31:54;;;;;;;;;27.67;27.67;27.00;39.50;;;;;;5116779;28;8812;-73
2022/05/10 08:34:20;;;;;;;;;29.67;29.67;27.20;38.90;;;;;;5116756;28;8818;-76
2022/05/10 08:36:46;;;;;;;;;21.33;21.33;27.40;38.80;;;;;;5116805;28;8784;-74
2022/05/10 08:39:13;;;;;;;;;19.33;19.33;26.80;37.70;;;;;;5116723;28;8766;-73
2022/05/10 08:41:49;;;;;;;;;19.00;19.00;26.80;38.10;;;;;;5116324;28;8738;-72
2022/05/10 08:44:16;;;;;;;;;24.67;24.67;26.80;39.10;;;;;;5116688;28;8837;-73
2022/05/10 08:46:48;;;;;;;;;23.33;23.33;26.90;38.30;;;;;;5116417;28;8757;-74
2022/05/10 08:49:20;;;;;;;;;21.67;21.00;27.30;38.10;;;;;;5116490;28;8848;-76
2022/05/10 08:51:47;;;;;;;;;26.33;26.33;27.70;37.60;;;;;;5116648;28;8765;-75
2022/05/10 08:54:13;;;;;;;;;26.00;26.00;27.90;37.30;;;;;;5116610;28;8750;-75
2022/05/10 08:56:54;;;;;;;;;23.00;23.00;27.80;37.10;;;;;;5116326;28;9604;-75
2022/05/10 08:59:41;;;;;;;;;23.67;23.67;28.10;37.20;;;;;;5098999;28;8758;-77
2022/05/10 09:02:17;;;;;;;;;25.33;25.33;28.20;36.80;;;;;;5116153;28;8749;-75
2022/05/10 09:04:54;;;;;;;;;24.00;24.00;28.40;36.70;;;;;;5115578;28;8808;-74
2022/05/10 09:07:37;;;;;;;;;29.00;29.00;28.50;37.00;;;;;;5116393;28;8761;-74
2022/05/10 09:10:25;;;;;;;;;26.00;26.00;28.20;36.30;;;;;;5098025;28;8771;-72
2022/05/10 09:13:02;;;;;;;;;23.67;23.67;27.60;37.50;;;;;;5089441;28;9439;-72
2022/05/10 09:15:34;;;;;;;;;23.00;23.00;27.60;38.20;;;;;;5094444;28;8756;-73
2022/05/10 09:18:06;;;;;;;;;29.33;29.33;27.80;37.60;;;;;;5091422;28;8730;-76
2022/05/10 09:20:32;;;;;;;;;25.00;25.00;28.10;37.70;;;;;;5089847;28;9510;-76
2022/05/10 09:23:25;;;;;;;;;21.67;21.67;28.10;37.90;;;;;;5090662;28;8873;-75
2022/05/10 09:26:00;;;;;;;;;30.33;30.33;28.20;38.40;;;;;;5114820;28;8882;-73
2022/05/10 09:28:44;;;;;;;;;29.67;29.67;28.20;37.90;;;;;;5090552;28;8764;-75
2022/05/10 09:37:14;;;;;;;;;26.67;26.33;28.20;38.10;;;;;;5100556;28;8770;-77
2022/05/10 09:40:05;;;;;;;;;24.33;24.33;28.50;38.10;;;;;;5109721;28;8857;-75
2022/05/10 09:42:44;;;;;;;;;26.33;26.33;28.50;37.30;;;;;;5101713;28;8797;-73
2022/05/10 09:45:26;;;;;;;;;25.33;24.67;28.80;37.90;;;;;;5115527;28;8870;-71
2022/05/10 09:48:02;;;;;;;;;28.33;28.33;29.10;36.50;;;;;;5115320;28;8766;-74
2022/05/10 09:50:41;;;;;;;;;26.00;26.00;29.10;36.00;;;;;;5115310;28;8860;-73
2022/05/10 09:53:30;;;;;;;;;27.67;27.67;29.10;36.50;;;;;;5115126;28;8792;-73
2022/05/10 09:56:11;;;;;;;;;28.00;28.00;28.00;38.80;;;;;;5115163;28;8754;-73
2022/05/10 09:58:41;;;;;;;;;28.00;28.00;28.10;38.70;;;;;;5115406;28;8742;-72
2022/05/10 10:01:11;;;;;;;;;26.33;26.33;27.50;39.80;;;;;;5115354;28;8738;-72
2022/05/10 10:03:39;;;;;;;;;23.00;21.67;27.10;40.50;;;;;;5115294;28;8765;-72
2022/05/10 10:06:23;;;;;;;;;24.67;24.67;26.80;41.10;;;;;;5114850;28;8797;-72
2022/05/10 10:08:54;;;;;;;;;23.33;23.33;27.20;40.70;;;;;;5115328;28;8780;-71
2022/05/10 10:11:30;;;;;;;;;23.33;23.33;26.80;40.20;;;;;;5115086;28;8734;-71
2022/05/10 10:14:06;;;;;;;;;26.00;26.00;26.90;40.90;;;;;;5114614;28;8826;-73
2022/05/10 10:16:46;;;;;;;;;23.33;23.33;27.00;39.70;;;;;;5114959;28;8769;-74
2022/05/10 10:19:29;;;;;;;;;24.00;24.00;27.00;40.20;;;;;;5114880;28;8769;-76
2022/05/10 10:22:19;;;;;;;;;22.67;22.67;27.60;38.70;;;;;;5114895;28;8849;-74
2022/05/10 10:25:08;;;;;;;;;25.33;25.33;27.70;38.40;;;;;;5114904;28;8785;-74
2022/05/10 10:27:54;;;;;;;;;24.33;24.33;27.70;38.00;;;;;;5114608;28;8828;-78
2022/05/10 10:30:27;;;;;;;;;22.00;22.00;27.10;39.10;;;;;;5062704;28;8790;-74
2022/05/10 10:33:14;;;;;;;;;19.67;19.67;27.00;39.00;;;;;;5114532;28;8814;-73
2022/05/10 10:35:49;;;;;;;;;21.33;21.33;26.80;38.90;;;;;;5114883;28;8900;-75
2022/05/10 10:38:18;;;;;;;;;19.00;19.00;26.60;38.80;;;;;;5114560;28;8854;-73
2022/05/10 10:40:52;;;;;;;;;18.33;18.33;26.70;38.80;;;;;;5114436;28;8850;-73
2022/05/10 10:43:47;;;;;;;;;18.67;18.67;27.00;38.70;;;;;;5096080;28;8794;-75
2022/05/10 10:46:24;;;;;;;;;20.00;20.00;27.20;38.50;;;;;;5114851;28;9497;-74
2022/05/10 10:49:04;;;;;;;;;19.00;19.00;27.50;38.10;;;;;;5119090;28;8856;-73
2022/05/10 10:51:32;;;;;;;;;17.33;17.33;27.90;37.70;;;;;;5118943;28;8797;-74
2022/05/10 10:54:00;;;;;;;;;18.33;18.33;28.70;36.10;;;;;;5118658;28;8749;-71
2022/05/10 10:56:45;;;;;;;;;17.67;17.67;28.80;35.70;;;;;;5118874;28;8803;-71
2022/05/10 10:59:38;;;;;;;;;15.67;15.67;29.50;35.30;;;;;;5118704;28;11403;-71
2022/05/10 11:02:24;;;;;;;;;15.33;15.33;30.10;33.40;;;;;;5105676;28;8770;-71
2022/05/10 11:05:20;;;;;;;;;17.00;17.00;30.60;32.40;;;;;;5091709;28;11470;-73
2022/05/10 11:08:20;;;;;;;;;15.00;15.00;30.40;31.60;;;;;;5100850;28;12105;-72
2022/05/10 11:11:03;;;;;;;;;17.33;17.33;30.00;31.70;;;;;;5080886;28;11507;-74
2022/05/10 11:13:48;;;;;;;;;17.00;17.00;29.40;32.80;;;;;;5088092;28;11636;-74
2022/05/10 11:16:14;;;;;;;;;17.33;17.33;29.50;32.30;;;;;;5077351;28;9496;-75
2022/05/10 11:19:11;;;;;;;;;18.00;18.00;29.80;32.30;;;;;;5077242;28;11443;-77
2022/05/10 11:21:44;;;;;;;;;17.67;17.67;30.30;32.20;;;;;;5077506;28;8731;-74
2022/05/10 11:24:26;;;;;;;;;16.00;16.00;31.40;32.70;;;;;;5077572;28;8820;-71
2022/05/10 11:27:29;;;;;;;;;18.00;18.00;32.60;31.10;;;;;;5103519;28;8770;-71
2022/05/10 11:30:06;;;;;;;;;19.33;19.33;35.40;29.50;;;;;;5039321;28;11459;-74
2022/05/10 11:33:06;;;;;;;;;15.33;15.33;41.40;24.70;;;;;;5097445;28;11592;-74
2022/05/10 11:35:44;;;;;;;;;13.00;13.00;48.50;21.40;;;;;;5094132;28;12074;-73
2022/05/10 11:38:13;;;;;;;;;15.00;15.00;52.10;17.70;;;;;;5100270;28;12060;-75
2022/05/10 11:40:48;;;;;;;;;15.00;15.00;53.70;16.90;;;;;;5117701;28;11535;-75
2022/05/10 11:43:32;;;;;;;;;16.25;16.25;55.70;15.40;;;;;;5117636;28;11456;-74
2022/05/10 11:46:35;;;;;;;;;16.50;16.50;56.70;14.60;;;;;;5117711;28;12119;-76
2022/05/10 11:49:29;;;;;;;;;16.00;16.00;57.50;14.50;;;;;;5117809;28;11470;-74
2022/05/10 11:52:18;;;;;;;;;17.00;17.00;59.30;13.90;;;;;;5117499;28;11423;-75
2022/05/10 11:55:05;;;;;;;;;12.50;12.50;60.00;13.40;;;;;;5117615;28;11442;-75
2022/05/10 11:57:33;;;;;;;;;16.75;16.75;59.60;13.10;;;;;;5117485;28;11467;-73
2022/05/10 12:00:27;;;;;;;;;16.50;16.50;58.40;13.20;;;;;;5116412;28;11545;-73
2022/05/10 12:02:54;;;;;;;;;14.75;14.75;58.50;13.30;;;;;;5099120;28;11421;-74
2022/05/10 12:05:30;;;;;;;;;15.50;15.50;57.20;12.90;;;;;;5117399;28;11563;-74
2022/05/10 12:08:03;;;;;;;;;12.50;12.50;57.30;13.60;;;;;;5117378;28;11425;-74
2022/05/10 12:10:36;;;;;;;;;13.00;13.00;57.10;13.50;;;;;;5117245;28;11406;-73
2022/05/10 12:13:11;;;;;;;;;13.25;13.25;57.40;12.40;;;;;;5116671;28;11579;-73
2022/05/10 12:21:23;;;;;;;;;13.00;13.00;46.10;16.00;;;;;;5116599;28;12027;-73
2022/05/10 12:23:59;;;;;;;;;15.50;15.50;43.40;18.20;;;;;;5116362;28;12075;-73
2022/05/10 12:26:40;;;;;;;;;14.75;14.75;42.20;18.90;;;;;;5095841;28;11534;-73
2022/05/10 12:29:07;;;;;;;;;14.50;14.50;39.90;19.80;;;;;;5096353;28;12065;-73
2022/05/10 12:31:33;;;;;;;;;15.50;15.50;36.90;21.80;;;;;;5096320;28;11436;-72
2022/05/10 12:34:08;;;;;;;;;15.75;15.75;36.40;23.30;;;;;;5096424;28;11517;-73
2022/05/10 12:36:42;;;;;;;;;14.50;14.50;36.10;23.60;;;;;;5096518;28;8854;-73
2022/05/10 12:39:29;;;;;;;;;17.75;17.75;35.90;24.10;;;;;;5096343;28;11423;-74
2022/05/10 12:42:13;;;;;;;;;10.50;10.50;35.80;24.70;;;;;;5099698;28;11441;-70
2022/05/10 12:45:16;;;;;;;;;17.00;17.00;36.30;24.50;;;;;;5118689;28;11446;-76
2022/05/10 12:48:19;;;;;;;;;17.25;17.25;36.30;24.00;;;;;;5073422;28;11473;-74
2022/05/10 12:50:55;;;;;;;;;17.00;17.00;36.00;24.30;;;;;;5092000;28;11432;-73
2022/05/10 12:53:40;;;;;;;;;18.67;18.67;36.10;24.90;;;;;;5100608;28;11460;-73
2022/05/10 12:56:16;;;;;;;;;16.50;16.50;36.10;25.10;;;;;;5116278;28;11420;-75
2022/05/10 12:58:48;;;;;;;;;18.00;18.00;35.90;25.40;;;;;;5116471;28;11464;-75
2022/05/10 13:01:17;;;;;;;;;16.75;16.75;35.60;24.80;;;;;;5116327;28;11448;-73
2022/05/10 13:03:51;;;;;;;;;14.00;14.00;35.70;25.40;;;;;;5116066;28;11427;-74
2022/05/10 13:06:19;;;;;;;;;10.00;10.00;35.60;25.40;;;;;;5116015;28;11445;-73
2022/05/10 13:08:59;;;;;;;;;14.00;14.00;34.30;26.00;;;;;;5116242;28;11516;-77
2022/05/10 13:11:31;;;;;;;;;13.25;13.25;33.20;27.20;;;;;;5115943;28;11574;-79
2022/05/10 13:14:00;;;;;;;;;15.00;15.00;32.30;28.20;;;;;;5093457;28;11584;-77
2022/05/10 13:16:28;;;;;;;;;16.33;16.33;32.10;27.90;;;;;;5079284;28;11438;-76
2022/05/10 13:18:54;;;;;;;;;17.67;17.67;31.30;28.50;;;;;;5084276;28;11501;-76
2022/05/10 13:21:26;;;;;;;;;12.75;12.75;30.90;29.80;;;;;;5081558;28;11466;-76
2022/05/10 13:23:54;;;;;;;;;10.75;10.75;30.30;29.30;;;;;;5086656;28;8871;-77
2022/05/10 13:26:22;;;;;;;;;14.67;14.67;29.90;30.00;;;;;;5083618;28;11428;-77